createdAt,value
2019-01-30T00:04:10.201Z,72.03
2019-01-30T00:09:14.166Z,72.89
2019-01-30T00:14:16.965Z,73.64
2019-01-30T00:19:19.717Z,74.40
2019-01-30T00:24:22.561Z,75.96
2019-01-30T00:29:25.331Z,77.62
2019-01-30T00:34:28.102Z,78.52
2019-01-30T00:39:30.843Z,79.05
2019-01-30T00:44:33.587Z,79.43
2019-01-30T00:49:36.333Z,80.24
2019-01-30T00:54:39.186Z,79.99
2019-01-30T00:59:42.019Z,79.79
2019-01-30T01:04:44.832Z,79.78
2019-01-30T01:09:47.727Z,79.77
2019-01-30T01:14:50.635Z,79.72
2019-01-30T01:19:53.409Z,79.53
2019-01-30T01:24:56.189Z,78.81
2019-01-30T01:29:58.966Z,78.12
2019-01-30T01:35:01.792Z,77.85
2019-01-30T01:40:05.612Z,78.16
2019-01-30T01:45:11.594Z,78.64
2019-01-30T01:50:16.596Z,78.27
2019-01-30T01:55:19.656Z,78.01
2019-01-30T02:00:23.002Z,78.82
2019-01-30T02:05:26.019Z,78.86
2019-01-30T02:10:28.929Z,79.07
2019-01-30T02:15:32.909Z,78.92
2019-01-30T02:20:35.737Z,78.03
2019-01-30T02:25:38.627Z,76.78
2019-01-30T02:30:47.446Z,76.51
2019-01-30T02:35:45.995Z,77.42
2019-01-30T02:40:48.728Z,77.66
2019-01-30T02:45:51.476Z,77.56
2019-01-30T02:50:54.193Z,77.53
2019-01-30T02:55:56.973Z,78.34
2019-01-30T03:00:59.975Z,79.25
2019-01-30T03:06:02.805Z,79.19
2019-01-30T03:16:16.044Z,76.02
2019-01-30T03:21:18.767Z,74.21
2019-01-30T03:26:21.509Z,74.54
2019-01-30T03:31:24.214Z,74.84
2019-01-30T03:36:27.349Z,74.09
2019-01-30T03:41:30.069Z,74.68
2019-01-30T03:46:32.878Z,75.27
2019-01-30T03:51:35.770Z,75.78
2019-01-30T03:56:38.663Z,76.40
2019-01-30T04:01:41.526Z,76.10
2019-01-30T04:06:44.322Z,74.79
2019-01-30T04:11:47.087Z,74.43
2019-01-30T04:16:50.819Z,74.05
2019-01-30T04:21:53.595Z,73.64
2019-01-30T04:26:56.394Z,72.43
2019-01-30T04:31:59.074Z,73.30
2019-01-30T04:37:01.949Z,75.54
2019-01-30T04:42:04.961Z,77.01
2019-01-30T04:47:07.785Z,77.49
2019-01-30T04:52:10.671Z,77.84
2019-01-30T04:57:13.490Z,78.68
2019-01-30T05:02:16.248Z,79.42
2019-01-30T05:07:19.024Z,78.75
2019-01-30T05:12:21.844Z,78.23
2019-01-30T05:17:24.800Z,77.99
2019-01-30T05:22:27.530Z,77.90
2019-01-30T05:27:30.321Z,77.93
2019-01-30T05:32:33.129Z,77.34
2019-01-30T05:37:35.883Z,76.44
2019-01-30T05:42:38.666Z,76.49
2019-01-30T05:47:41.658Z,76.60
2019-01-30T05:52:44.560Z,77.22
2019-01-30T05:57:47.482Z,77.23
2019-01-30T06:02:50.238Z,76.71
2019-01-30T06:07:53.061Z,75.08
2019-01-30T06:12:55.888Z,74.68
2019-01-30T06:17:58.744Z,74.94
2019-01-30T06:23:01.969Z,74.90
2019-01-30T06:28:05.112Z,75.20
2019-01-30T06:33:07.876Z,74.63
2019-01-30T06:38:10.785Z,74.13
2019-01-30T06:43:13.404Z,73.30
2019-01-30T06:48:16.318Z,73.07
2019-01-30T06:53:19.070Z,73.40
2019-01-30T06:58:21.780Z,74.02
2019-01-30T07:03:24.728Z,73.75
2019-01-30T07:08:27.535Z,74.47
2019-01-30T07:13:30.411Z,74.31
2019-01-30T07:18:33.406Z,73.84
2019-01-30T07:23:36.155Z,74.14
2019-01-30T07:28:38.925Z,74.67
2019-01-30T07:33:41.664Z,72.96
2019-01-30T07:38:44.474Z,72.18
2019-01-30T07:43:47.343Z,72.21
2019-01-30T07:48:50.165Z,72.53
2019-01-30T07:53:54.812Z,70.70
2019-01-30T07:58:57.535Z,70.49
2019-01-30T08:04:00.340Z,71.68
2019-01-30T08:09:05.596Z,72.33
2019-01-30T08:14:08.591Z,72.03
2019-01-30T08:19:11.658Z,71.96
2019-01-30T08:24:14.509Z,72.50
2019-01-30T08:29:17.378Z,72.31
2019-01-30T08:34:20.163Z,72.84
2019-01-30T08:39:22.836Z,73.45
2019-01-30T08:44:25.501Z,73.41
2019-01-30T08:49:28.318Z,72.76
2019-01-30T08:54:31.215Z,73.37
2019-01-30T08:59:34.003Z,73.53
2019-01-30T09:04:36.815Z,73.96
2019-01-30T09:09:39.627Z,73.83
2019-01-30T09:14:42.493Z,73.56
2019-01-30T09:19:45.466Z,74.11
2019-01-30T09:24:48.192Z,74.25
2019-01-30T09:29:51.045Z,74.62
2019-01-30T09:34:53.772Z,74.59
2019-01-30T09:39:56.443Z,74.21
2019-01-30T09:44:59.198Z,73.41
2019-01-30T09:50:02.147Z,71.93
2019-01-30T09:55:06.236Z,71.97
2019-01-30T10:00:14.860Z,69.07
2019-01-30T10:05:18.155Z,69.17
2019-01-30T10:10:24.178Z,72.66
2019-01-30T10:15:29.820Z,73.20
2019-01-30T10:20:33.380Z,75.49
2019-01-30T10:25:36.382Z,74.11
2019-01-30T10:30:41.720Z,73.46
2019-01-30T10:35:44.975Z,75.12
2019-01-30T10:40:48.034Z,75.06
2019-01-30T10:45:50.739Z,74.12
2019-01-30T10:50:53.744Z,74.18
2019-01-30T10:55:56.610Z,73.43
2019-01-30T11:00:59.345Z,66.50
2019-01-30T11:06:02.106Z,63.98
2019-01-30T11:11:07.937Z,67.80
2019-01-30T11:16:09.955Z,70.36
2019-01-30T11:21:12.956Z,72.60
2019-01-30T11:26:15.927Z,74.83
2019-01-30T11:31:18.756Z,76.53
2019-01-30T11:36:21.531Z,76.84
2019-01-30T11:41:24.618Z,75.57
2019-01-30T11:46:27.314Z,75.91
2019-01-30T11:51:30.057Z,73.92
2019-01-30T11:56:33.048Z,71.46
2019-01-30T12:01:35.800Z,71.55
2019-01-30T12:06:38.646Z,69.54
2019-01-30T12:11:41.876Z,70.36
2019-01-30T12:16:44.698Z,69.36
2019-01-30T12:21:47.496Z,62.59
2019-01-30T12:26:50.184Z,59.24
2019-01-30T12:31:52.892Z,58.56
2019-01-30T12:36:55.981Z,59.75
2019-01-30T12:41:58.759Z,61.16
2019-01-30T12:47:01.554Z,63.20
2019-01-30T12:52:04.414Z,65.47
2019-01-30T12:57:07.336Z,65.87
2019-01-30T13:02:10.311Z,65.12
2019-01-30T13:07:13.289Z,61.10
2019-01-30T13:12:16.235Z,57.64
2019-01-30T13:17:19.111Z,60.39
2019-01-30T13:22:22.077Z,58.90
2019-01-30T13:27:24.986Z,57.88
2019-01-30T13:32:27.858Z,55.24
2019-01-30T13:37:30.756Z,54.53
2019-01-30T13:42:33.511Z,53.79
2019-01-30T13:47:36.226Z,52.90
2019-01-30T13:52:39.120Z,53.94
2019-01-30T13:57:41.875Z,53.00
2019-01-30T14:02:44.532Z,53.40
2019-01-30T14:07:49.001Z,52.67
2019-01-30T14:12:51.880Z,53.48
2019-01-30T14:17:54.683Z,55.97
2019-01-30T14:22:58.639Z,55.42
2019-01-30T14:28:01.328Z,55.01
2019-01-30T14:33:04.474Z,57.92
2019-01-30T14:38:07.572Z,59.39
2019-01-30T14:43:10.611Z,57.08
2019-01-30T14:48:13.367Z,58.93
2019-01-30T14:53:16.274Z,58.99
2019-01-30T14:58:19.498Z,57.02
2019-01-30T15:03:22.396Z,56.32
2019-01-30T15:08:25.151Z,59.13
2019-01-30T15:13:27.832Z,61.18
2019-01-30T15:18:30.697Z,62.12
2019-01-30T15:23:33.549Z,62.88
2019-01-30T15:28:36.591Z,64.87
2019-01-30T15:33:39.366Z,65.87
2019-01-30T15:38:42.085Z,65.03
2019-01-30T15:43:44.958Z,66.01
2019-01-30T15:48:47.596Z,67.01
2019-01-30T15:53:50.361Z,67.77
2019-01-30T15:58:53.068Z,65.94
2019-01-30T16:03:55.804Z,65.82
2019-01-30T16:08:58.645Z,65.67
2019-01-30T16:14:01.459Z,66.50
2019-01-30T16:19:04.488Z,66.24
2019-01-30T16:24:07.544Z,65.83
2019-01-30T16:29:10.196Z,65.85
2019-01-30T16:34:13.006Z,65.75
2019-01-30T16:39:15.862Z,66.21
2019-01-30T16:44:19.177Z,66.37
2019-01-30T16:49:24.924Z,66.39
2019-01-30T16:54:27.961Z,66.43
2019-01-30T16:59:30.709Z,66.35
2019-01-30T17:04:33.709Z,66.62
2019-01-30T17:09:36.732Z,67.06
2019-01-30T17:14:39.541Z,67.24
2019-01-30T17:19:42.455Z,68.18
2019-01-30T17:24:45.488Z,69.00
2019-01-30T17:29:48.195Z,68.85
2019-01-30T17:34:51.986Z,69.04
2019-01-30T17:39:54.966Z,69.82
2019-01-30T17:44:57.788Z,70.16
2019-01-30T17:50:00.553Z,70.57
2019-01-30T17:55:04.616Z,70.64
2019-01-30T18:00:17.462Z,70.90
2019-01-30T18:05:20.578Z,71.13
2019-01-30T18:10:23.520Z,71.46
2019-01-30T18:15:26.268Z,71.43
2019-01-30T18:20:29.056Z,72.63
2019-01-30T18:25:32.210Z,72.76
2019-01-30T18:30:35.416Z,72.50
2019-01-30T18:35:38.245Z,72.49
2019-01-30T18:40:40.918Z,72.90
2019-01-30T18:45:43.899Z,73.57
2019-01-30T18:50:46.817Z,73.70
2019-01-30T18:55:49.536Z,74.09
2019-01-30T19:00:52.261Z,74.62
2019-01-30T19:05:54.988Z,74.63
2019-01-30T19:10:58.042Z,74.87
2019-01-30T19:16:00.752Z,74.75
2019-01-30T19:21:04.186Z,74.61
2019-01-30T19:26:07.087Z,74.90
2019-01-30T19:31:09.863Z,75.54
2019-01-30T19:36:12.536Z,75.48
2019-01-30T19:41:15.246Z,75.40
2019-01-30T19:46:17.989Z,75.56
2019-01-30T19:51:20.722Z,75.99
2019-01-30T19:56:23.477Z,75.97
2019-01-30T20:01:35.979Z,76.19
2019-01-30T20:06:31.269Z,76.28
2019-01-30T20:11:33.984Z,76.84
2019-01-30T20:16:36.831Z,77.01
2019-01-30T20:21:39.686Z,76.67
2019-01-30T20:26:42.777Z,76.81
2019-01-30T20:31:45.519Z,77.18
2019-01-30T20:36:49.194Z,76.94
2019-01-30T20:41:51.842Z,76.81
2019-01-30T20:46:58.509Z,76.81
2019-01-30T20:52:01.323Z,76.57
2019-01-30T20:57:04.379Z,76.85
2019-01-30T21:02:07.257Z,76.90
2019-01-30T21:07:10.172Z,77.04
2019-01-30T21:12:12.859Z,77.80
2019-01-30T21:17:15.877Z,77.96
2019-01-30T21:22:18.810Z,78.34
2019-01-30T21:27:21.503Z,78.19
2019-01-30T21:32:24.280Z,77.99
2019-01-30T21:37:27.003Z,77.56
2019-01-30T21:42:29.774Z,77.74
2019-01-30T21:47:32.493Z,77.94
2019-01-30T21:52:35.300Z,77.72
2019-01-30T21:57:37.984Z,77.16
2019-01-30T22:02:41.045Z,77.11
2019-01-30T22:07:43.984Z,76.52
2019-01-30T22:12:46.968Z,76.22
2019-01-30T22:17:49.947Z,76.05
2019-01-30T22:22:52.929Z,76.16
2019-01-30T22:27:55.977Z,76.01
2019-01-30T22:32:58.927Z,75.99
2019-01-30T22:38:12.045Z,75.94
2019-01-30T22:43:06.449Z,75.82
2019-01-30T22:48:09.123Z,76.04
2019-01-30T22:53:11.808Z,75.98
2019-01-30T22:58:14.617Z,76.08
2019-01-30T23:03:17.714Z,75.86
2019-01-30T23:08:31.929Z,76.33
2019-01-30T23:13:45.447Z,76.38
2019-01-30T23:19:16.507Z,76.32
2019-01-30T23:24:45.519Z,76.21
2019-01-30T23:30:19.441Z,76.28
2019-01-30T23:35:46.879Z,76.34
2019-01-30T23:41:08.313Z,76.42
2019-01-30T23:46:24.234Z,76.54
2019-01-30T23:51:53.673Z,76.70
2019-01-30T23:57:11.931Z,76.78
